In Rescue
 
Open Full Screen Window  High Contrast Mode
Wind Gusting 00 knots
11
June 22, 2024 10:33 PM EDT
Present Weather: Light Rain and Mist
Weather Information
Wind Direction
  020 °
Wind Speed
  11 kt (13 mph)
Wind Gust
  00 kt (0 mph)
Altimeter
29.70 in
Visibility
2 SM
Temperature
12° C
54° F
Dewpoint
12° C
54° F
Humidity
100%
Sky Condition
Broken @ 100 ft
LIFR

METAR KSAW 230233Z AUTO 02011KT 2SM -RA BR BKN001 12/12 A2970 RMK AO2 VIS 1 1/2V2 1/2

FAA Disclaimer: The data displayed is for advisory purposes only and is not to be used for flight planning or operations.